Terminal Aerodrome Forecast
Issued by NWS Bismarck, ND

Home | Current Version | Previous Version | Graphics & Text | Print | Product List | Glossary On
Versions: 1 2 3 4 5 6 7 8 9 10 11 12 13 14 15 16 17
271
FTUS43 KBIS 180130 AAB
TAFBIS
TAF AMD
KBIS 180130Z 1802/1824 20008KT P6SM BKN120
     FM180400 21008KT P6SM BKN060
     FM181000 23007KT P6SM BKN120
     FM181700 29009KT P6SM BKN040
     FM182100 28011KT P6SM BKN030=

USA.gov is the U.S. government's official web portal to all federal, state and local government web resources and services.